createdAt,value
2022-12-01T02:59:48.678Z,49.20
2022-12-01T03:02:52.954Z,49.10
2022-12-01T03:05:39.873Z,48.80
2022-12-01T03:08:20.501Z,47.33
2022-12-01T03:11:06.807Z,49.03
2022-12-01T03:14:01.500Z,48.13
2022-12-01T03:16:51.080Z,49.43
2022-12-01T03:19:44.839Z,48.90
2022-12-01T03:22:18.679Z,47.27
2022-12-01T03:24:48.505Z,48.20
2022-12-01T03:27:19.627Z,48.97
2022-12-01T03:29:52.547Z,47.17
2022-12-01T03:32:27.867Z,50.87
2022-12-01T03:35:01.910Z,46.67
2022-12-01T03:37:45.464Z,46.33
2022-12-01T03:40:17.908Z,50.20
2022-12-01T03:42:50.363Z,52.60
2022-12-01T03:49:31.663Z,45.27
2022-12-01T03:52:24.108Z,50.27
2022-12-01T03:55:14.726Z,46.43
2022-12-01T03:57:46.597Z,48.37
2022-12-01T04:00:14.579Z,49.57
2022-12-01T04:02:42.268Z,49.77
2022-12-01T04:05:09.646Z,50.70
2022-12-01T04:07:40.582Z,48.10
2022-12-01T04:10:08.841Z,47.63
2022-12-01T04:12:36.350Z,48.17
2022-12-01T04:15:08.256Z,46.53
2022-12-01T04:17:37.471Z,51.13
2022-12-01T04:20:06.680Z,50.47
2022-12-01T04:22:34.394Z,48.37
2022-12-01T04:25:02.175Z,50.40
2022-12-01T04:27:29.372Z,48.90
2022-12-01T04:29:56.750Z,50.33
2022-12-01T04:32:23.935Z,49.50
2022-12-01T04:34:51.523Z,51.10
2022-12-01T04:37:19.426Z,49.33
2022-12-01T04:39:46.966Z,50.80
2022-12-01T04:42:14.870Z,53.13
2022-12-01T04:44:44.547Z,48.00
2022-12-01T04:47:12.173Z,49.10
2022-12-01T04:49:39.399Z,47.57
2022-12-01T04:52:06.840Z,47.07
2022-12-01T04:54:33.980Z,46.30
2022-12-01T04:57:01.290Z,47.93
2022-12-01T04:59:28.211Z,49.47
2022-12-01T05:01:58.288Z,52.53
2022-12-01T05:04:25.736Z,48.33
2022-12-01T05:06:56.126Z,48.23
2022-12-01T05:09:27.653Z,49.50
2022-12-01T05:11:55.599Z,48.37
2022-12-01T05:14:24.243Z,48.17
2022-12-01T05:16:58.500Z,45.77
2022-12-01T05:19:45.074Z,46.40
2022-12-01T05:22:12.426Z,49.60
2022-12-01T05:24:40.867Z,47.20
2022-12-01T05:27:11.375Z,50.20
2022-12-01T05:29:39.783Z,49.00
2022-12-01T05:32:07.289Z,48.90
2022-12-01T05:34:36.108Z,50.53
2022-12-01T05:37:03.912Z,48.27
2022-12-01T05:39:31.309Z,49.27
2022-12-01T05:42:05.940Z,45.50
2022-12-01T05:44:38.578Z,48.13
2022-12-01T05:50:04.952Z,49.33
2022-12-01T05:52:35.808Z,50.27
2022-12-01T05:55:07.216Z,50.73
2022-12-01T05:57:34.502Z,52.07
2022-12-01T06:00:02.246Z,49.07
2022-12-01T06:02:39.160Z,51.10
2022-12-01T06:05:08.176Z,49.67
2022-12-01T06:07:36.157Z,51.77
2022-12-01T06:10:06.884Z,52.50
2022-12-01T19:25:47.408Z,42.97
2022-12-01T19:28:14.734Z,44.93
2022-12-01T19:30:48.087Z,48.23
2022-12-01T19:33:16.934Z,53.80
2022-12-01T19:35:47.247Z,46.97
2022-12-01T19:38:14.934Z,79.87
2022-12-01T19:40:46.304Z,70.37
2022-12-01T19:43:14.050Z,51.53
2022-12-01T19:45:41.880Z,63.33
2022-12-01T19:48:12.523Z,49.57
2022-12-01T19:50:42.788Z,47.87
2022-12-01T19:53:11.168Z,78.93
2022-12-01T19:55:38.705Z,73.17
2022-12-01T19:58:06.179Z,51.50
2022-12-01T20:00:33.232Z,42.80
2022-12-01T20:03:02.772Z,41.10
2022-12-01T20:05:32.406Z,44.10
2022-12-01T20:07:59.673Z,38.97
2022-12-01T20:10:30.042Z,41.17
2022-12-01T20:12:57.535Z,41.60
2022-12-01T20:15:24.541Z,48.37
2022-12-01T20:17:54.036Z,48.23
2022-12-01T20:20:21.668Z,45.33
2022-12-01T20:22:49.538Z,43.27
2022-12-01T20:25:17.591Z,42.13
2022-12-01T20:27:45.874Z,41.87
2022-12-01T20:30:14.039Z,38.93
2022-12-01T20:32:41.456Z,38.57
2022-12-01T20:35:16.079Z,38.40
2022-12-01T20:37:43.855Z,38.90
2022-12-01T20:40:13.132Z,39.27
2022-12-01T20:42:41.631Z,37.53
2022-12-01T20:45:11.651Z,37.87
2022-12-01T20:50:55.649Z,38.07
2022-12-01T20:53:24.405Z,37.80
2022-12-01T20:55:55.181Z,37.73
2022-12-01T20:58:23.666Z,35.40
2022-12-01T21:00:51.505Z,35.97
2022-12-01T23:59:13.326Z,38.97
